createdAt,value
2017-12-03T00:01:21.475Z,96742.89
2017-12-03T00:03:49.106Z,96737.98
2017-12-03T00:06:16.710Z,96728.42
2017-12-03T00:08:44.335Z,96727.96
2017-12-03T00:11:11.902Z,96731.70
2017-12-03T00:13:39.499Z,96732.11
2017-12-03T00:16:07.302Z,96736.72
2017-12-03T00:18:34.882Z,96735.08
2017-12-03T00:21:02.470Z,96728.45
2017-12-03T00:23:30.052Z,96726.05
2017-12-03T00:25:57.649Z,96725.38
2017-12-03T00:28:25.256Z,96720.48
2017-12-03T00:30:52.837Z,96727.22
2017-12-03T00:33:20.430Z,96730.08
2017-12-03T00:35:48.029Z,96727.98
2017-12-03T00:38:15.609Z,96717.52
2017-12-03T00:40:43.193Z,96717.91
2017-12-03T00:43:10.784Z,96714.46
2017-12-03T00:45:38.393Z,96711.47
2017-12-03T00:48:05.971Z,96703.41
2017-12-03T00:50:33.567Z,96712.27
2017-12-03T00:53:01.132Z,96709.08
2017-12-03T00:55:28.704Z,96712.89
2017-12-03T00:57:56.352Z,96710.15
2017-12-03T01:00:23.912Z,96709.20
2017-12-03T01:02:51.551Z,96706.53
2017-12-03T01:05:19.161Z,96706.23
2017-12-03T01:07:50.657Z,96705.20
2017-12-03T01:10:18.240Z,96694.62
2017-12-03T01:12:45.823Z,96698.88
2017-12-03T01:15:13.473Z,96696.90
2017-12-03T01:17:41.101Z,96699.75
2017-12-03T01:20:08.723Z,96694.69
2017-12-03T01:22:36.365Z,96695.22
2017-12-03T01:25:04.011Z,96698.98
2017-12-03T01:27:31.660Z,96697.84
2017-12-03T01:29:59.240Z,96697.92
2017-12-03T01:32:26.852Z,96689.39
2017-12-03T01:34:54.429Z,96692.89
2017-12-03T01:37:21.992Z,96686.73
2017-12-03T01:39:49.594Z,96681.86
2017-12-03T01:42:17.282Z,96679.64
2017-12-03T01:44:44.844Z,96673.33
2017-12-03T01:47:12.445Z,96673.20
2017-12-03T01:49:40.078Z,96673.16
2017-12-03T01:52:07.680Z,96678.11
2017-12-03T01:54:35.270Z,96674.60
2017-12-03T01:57:03.122Z,96663.11
2017-12-03T01:59:30.702Z,96661.87
2017-12-03T02:01:58.311Z,96655.55
2017-12-03T02:04:25.915Z,96648.70
2017-12-03T02:06:53.530Z,96644.67
2017-12-03T02:09:21.409Z,96644.66
2017-12-03T02:11:49.034Z,96637.80
2017-12-03T02:14:16.629Z,96639.25
2017-12-03T02:16:44.223Z,96631.87
2017-12-03T02:19:11.855Z,96627.16
2017-12-03T02:21:39.472Z,96631.53
2017-12-03T02:24:07.079Z,96630.84
2017-12-03T02:26:34.706Z,96635.60
2017-12-03T02:29:02.287Z,96631.00
2017-12-03T02:31:29.898Z,96626.89
2017-12-03T02:33:57.515Z,96626.02
2017-12-03T02:36:26.382Z,96625.97
2017-12-03T02:38:53.953Z,96619.70
2017-12-03T02:41:21.537Z,96619.58
2017-12-03T02:43:49.115Z,96610.75
2017-12-03T02:46:16.893Z,96603.53
2017-12-03T02:48:44.479Z,96606.45
2017-12-03T02:51:12.046Z,96602.19
2017-12-03T02:53:39.663Z,96608.39
2017-12-03T02:56:07.655Z,96611.63
2017-12-03T02:58:35.600Z,96615.50
2017-12-03T03:01:03.242Z,96608.01
2017-12-03T03:03:30.816Z,96608.69
2017-12-03T03:05:58.414Z,96607.17
2017-12-03T03:08:26.062Z,96605.66
2017-12-03T03:10:53.690Z,96607.08
2017-12-03T03:13:21.274Z,96609.51
2017-12-03T03:15:55.705Z,96605.28
2017-12-03T03:18:23.280Z,96608.27
2017-12-03T03:20:50.866Z,96612.87
2017-12-03T03:23:18.455Z,96609.73
2017-12-03T03:25:46.111Z,96606.75
2017-12-03T03:28:13.765Z,96606.55
2017-12-03T03:30:41.367Z,96606.29
2017-12-03T03:33:11.426Z,96609.00
2017-12-03T03:35:39.370Z,96614.97
2017-12-03T03:38:06.944Z,96613.76
2017-12-03T03:40:34.573Z,96619.58
2017-12-03T03:43:02.155Z,96620.34
2017-12-03T03:45:29.755Z,96620.76
2017-12-03T03:47:57.358Z,96621.98
2017-12-03T03:50:25.031Z,96623.66
2017-12-03T03:52:52.824Z,96629.51
2017-12-03T03:55:20.442Z,96636.44
2017-12-03T03:57:48.025Z,96632.97
2017-12-03T04:00:15.678Z,96637.84
2017-12-03T04:02:43.343Z,96638.64
2017-12-03T04:05:11.029Z,96637.34
2017-12-03T04:07:38.631Z,96635.16
2017-12-03T04:10:06.229Z,96634.24
2017-12-03T04:12:33.800Z,96637.63
2017-12-03T04:15:01.379Z,96638.95
2017-12-03T04:17:28.953Z,96641.75
2017-12-03T04:19:56.505Z,96642.46
2017-12-03T04:22:24.138Z,96640.73
2017-12-03T04:24:51.742Z,96639.13
2017-12-03T04:27:19.351Z,96637.23
2017-12-03T04:29:46.922Z,96640.63
2017-12-03T04:32:14.587Z,96645.03
2017-12-03T04:34:42.215Z,96638.22
2017-12-03T04:37:10.111Z,96641.19
2017-12-03T04:39:37.683Z,96647.66
2017-12-03T04:42:05.343Z,96652.23
2017-12-03T04:44:32.948Z,96661.03
2017-12-03T04:47:00.590Z,96656.95
2017-12-03T04:49:28.187Z,96663.24
2017-12-03T04:51:55.770Z,96663.13
2017-12-03T04:54:23.354Z,96665.63
2017-12-03T04:56:50.991Z,96670.61
2017-12-03T04:59:18.695Z,96672.29
2017-12-03T05:01:46.438Z,96669.27
2017-12-03T05:04:14.032Z,96664.75
2017-12-03T05:06:41.641Z,96672.78
2017-12-03T05:09:09.469Z,96673.59
2017-12-03T05:11:37.080Z,96671.48
2017-12-03T05:14:04.679Z,96666.30
2017-12-03T05:16:32.323Z,96666.09
2017-12-03T05:18:59.888Z,96665.86
2017-12-03T05:21:27.690Z,96668.03
2017-12-03T05:23:55.280Z,96668.50
2017-12-03T05:26:22.867Z,96666.86
2017-12-03T05:28:50.497Z,96661.45
2017-12-03T05:31:18.071Z,96672.76
2017-12-03T05:33:45.656Z,96663.47
2017-12-03T05:36:13.246Z,96666.44
2017-12-03T05:38:40.828Z,96668.07
2017-12-03T05:41:08.461Z,96662.17
2017-12-03T05:43:36.083Z,96670.92
2017-12-03T05:48:53.745Z,96668.30
2017-12-03T05:51:21.328Z,96659.91
2017-12-03T05:53:48.917Z,96658.12
2017-12-03T05:56:16.535Z,96651.04
2017-12-03T05:58:44.094Z,96653.94
2017-12-03T06:01:11.670Z,96653.05
2017-12-03T06:03:39.313Z,96659.30
2017-12-03T06:06:06.957Z,96655.91
2017-12-03T06:08:34.637Z,96660.47
2017-12-03T06:11:02.321Z,96656.05
2017-12-03T06:13:29.921Z,96656.17
2017-12-03T06:18:29.180Z,96657.09
2017-12-03T06:20:56.730Z,96658.44
2017-12-03T06:23:24.514Z,96658.35
2017-12-03T06:25:52.085Z,96660.53
2017-12-03T06:28:19.702Z,96665.98
2017-12-03T06:30:47.358Z,96680.69
2017-12-03T06:33:14.937Z,96677.20
2017-12-03T06:35:42.510Z,96680.98
2017-12-03T06:38:10.126Z,96674.35
2017-12-03T06:40:37.966Z,96676.86
2017-12-03T06:43:05.576Z,96685.29
2017-12-03T06:45:33.179Z,96685.67
2017-12-03T06:48:00.751Z,96687.80
2017-12-03T06:50:28.832Z,96692.17
2017-12-03T06:52:56.434Z,96683.78
2017-12-03T06:55:24.014Z,96692.97
2017-12-03T06:57:51.575Z,96693.27
2017-12-03T07:03:09.555Z,96698.42
2017-12-03T07:05:37.122Z,96693.73
2017-12-03T07:08:04.703Z,96701.19
2017-12-03T07:10:32.344Z,96697.24
2017-12-03T07:12:59.942Z,96695.89
2017-12-03T07:15:27.519Z,96697.48
2017-12-03T07:17:55.185Z,96700.05
2017-12-03T07:20:22.892Z,96699.38
2017-12-03T07:22:50.577Z,96697.58
2017-12-03T07:25:18.156Z,96697.48
2017-12-03T07:27:46.931Z,96700.88
2017-12-03T07:30:14.547Z,96700.75
2017-12-03T07:32:42.182Z,96696.63
2017-12-03T07:35:09.851Z,96696.77
2017-12-03T07:37:37.491Z,96698.59
2017-12-03T07:40:05.068Z,96699.06
2017-12-03T07:42:32.650Z,96695.15
2017-12-03T07:45:00.263Z,96699.77
2017-12-03T07:47:28.846Z,96694.72
2017-12-03T07:49:56.464Z,96696.58
2017-12-03T07:52:24.051Z,96696.14
2017-12-03T07:54:51.739Z,96697.21
2017-12-03T07:57:19.326Z,96698.97
2017-12-03T07:59:46.907Z,96697.02
2017-12-03T08:02:14.487Z,96695.48
2017-12-03T08:04:42.105Z,96699.35
2017-12-03T08:07:09.729Z,96699.67
2017-12-03T08:09:37.330Z,96701.88
2017-12-03T08:12:04.926Z,96700.08
2017-12-03T08:14:32.494Z,96693.45
2017-12-03T08:17:00.065Z,96694.77
2017-12-03T08:19:28.791Z,96691.34
2017-12-03T08:21:56.420Z,96691.03
2017-12-03T08:24:24.016Z,96690.11
2017-12-03T08:26:51.693Z,96691.53
2017-12-03T08:29:19.327Z,96690.59
2017-12-03T08:31:46.935Z,96687.44
2017-12-03T08:34:14.672Z,96691.73
2017-12-03T08:36:42.282Z,96695.98
2017-12-03T08:39:11.054Z,96689.16
2017-12-03T08:41:38.647Z,96691.05
2017-12-03T08:44:06.252Z,96687.42
2017-12-03T08:46:33.840Z,96686.63
2017-12-03T08:49:01.559Z,96682.23
2017-12-03T08:51:29.199Z,96684.95
2017-12-03T08:53:56.859Z,96683.38
2017-12-03T08:56:25.555Z,96684.33
2017-12-03T08:58:53.148Z,96680.58
2017-12-03T09:01:20.793Z,96682.16
2017-12-03T09:03:48.642Z,96676.44
2017-12-03T09:06:16.503Z,96680.66
2017-12-03T09:08:44.132Z,96680.90
2017-12-03T09:11:11.903Z,96686.16
2017-12-03T09:13:39.496Z,96679.98
2017-12-03T09:16:07.153Z,96680.60
2017-12-03T09:18:34.788Z,96680.77
2017-12-03T09:21:02.454Z,96680.07
2017-12-03T09:23:30.067Z,96683.45
2017-12-03T09:25:57.721Z,96680.19
2017-12-03T09:28:25.350Z,96681.99
2017-12-03T09:30:52.924Z,96688.80
2017-12-03T09:33:20.777Z,96683.50
2017-12-03T09:35:48.414Z,96676.34
2017-12-03T09:38:15.983Z,96680.20
2017-12-03T09:40:43.652Z,96681.39
2017-12-03T09:43:11.723Z,96683.00
2017-12-03T09:45:39.352Z,96679.55
2017-12-03T09:48:06.947Z,96677.79
2017-12-03T09:50:34.801Z,96680.78
2017-12-03T09:53:02.357Z,96675.84
2017-12-03T09:55:30.005Z,96680.47
2017-12-03T09:57:57.653Z,96674.13
2017-12-03T10:00:25.264Z,96679.38
2017-12-03T10:02:52.876Z,96679.33
2017-12-03T10:05:20.486Z,96680.08
2017-12-03T10:07:48.072Z,96678.66
2017-12-03T10:10:15.634Z,96671.66
2017-12-03T10:12:43.224Z,96677.59
2017-12-03T10:15:11.086Z,96678.02
2017-12-03T10:17:38.707Z,96673.91
2017-12-03T10:20:06.289Z,96667.24
2017-12-03T10:22:33.880Z,96666.05
2017-12-03T10:25:01.500Z,96674.12
2017-12-03T10:27:29.083Z,96674.91
2017-12-03T10:29:56.743Z,96668.98
2017-12-03T10:32:24.372Z,96663.51
2017-12-03T10:34:52.026Z,96661.83
2017-12-03T10:37:19.631Z,96661.63
2017-12-03T10:39:47.473Z,96655.27
2017-12-03T10:42:15.110Z,96654.80
2017-12-03T10:44:42.702Z,96649.44
2017-12-03T10:47:10.636Z,96647.53
2017-12-03T10:49:38.304Z,96635.86
2017-12-03T10:52:06.005Z,96645.13
2017-12-03T10:54:33.621Z,96644.44
2017-12-03T10:57:01.204Z,96639.37
2017-12-03T10:59:28.814Z,96643.48
2017-12-03T11:01:56.915Z,96641.95
2017-12-03T11:04:24.601Z,96638.58
2017-12-03T11:06:52.207Z,96633.15
2017-12-03T11:09:19.801Z,96635.01
2017-12-03T11:11:47.416Z,96632.98
2017-12-03T11:14:14.986Z,96632.97
2017-12-03T11:16:42.614Z,96630.13
2017-12-03T11:19:10.373Z,96630.52
2017-12-03T11:21:38.009Z,96628.00
2017-12-03T11:24:05.649Z,96628.36
2017-12-03T11:26:33.196Z,96628.11
2017-12-03T11:29:00.755Z,96627.64
2017-12-03T11:31:28.537Z,96623.71
2017-12-03T11:33:56.381Z,96619.45
2017-12-03T11:36:23.979Z,96621.30
2017-12-03T11:38:51.587Z,96618.62
2017-12-03T11:41:19.182Z,96619.23
2017-12-03T11:43:46.930Z,96620.77
2017-12-03T11:46:14.507Z,96621.33
2017-12-03T11:48:42.105Z,96618.66
2017-12-03T11:51:09.760Z,96613.27
2017-12-03T11:53:37.357Z,96615.47
2017-12-03T11:56:06.366Z,96622.77
2017-12-03T11:58:33.932Z,96616.41
2017-12-03T12:01:01.522Z,96614.88
2017-12-03T12:03:29.092Z,96613.05
2017-12-03T12:05:56.706Z,96616.02
2017-12-03T12:08:40.235Z,96619.54
2017-12-03T12:11:08.308Z,96620.80
2017-12-03T12:13:35.895Z,96618.38
2017-12-03T12:16:04.067Z,96612.81
2017-12-03T12:18:31.653Z,96613.56
2017-12-03T12:20:59.287Z,96616.09
2017-12-03T12:23:26.927Z,96619.38
2017-12-03T12:25:54.516Z,96619.72
2017-12-03T12:28:22.236Z,96613.51
2017-12-03T12:30:49.908Z,96612.30
2017-12-03T12:33:17.496Z,96613.41
2017-12-03T12:35:45.129Z,96608.89
2017-12-03T12:38:12.712Z,96609.16
2017-12-03T12:40:40.331Z,96605.91
2017-12-03T12:43:08.027Z,96611.52
2017-12-03T12:45:35.598Z,96609.21
2017-12-03T12:48:03.202Z,96606.06
2017-12-03T12:50:31.110Z,96601.30
2017-12-03T12:52:58.700Z,96605.33
2017-12-03T12:55:26.298Z,96603.73
2017-12-03T12:57:53.893Z,96603.61
2017-12-03T13:00:21.526Z,96598.38
2017-12-03T13:02:49.182Z,96602.65
2017-12-03T13:05:16.794Z,96594.25
2017-12-03T13:07:44.388Z,96593.63
2017-12-03T13:10:11.943Z,96595.25
2017-12-03T13:12:39.539Z,96603.49
2017-12-03T13:15:07.099Z,96593.82
2017-12-03T13:17:34.692Z,96598.08
2017-12-03T13:20:02.252Z,96605.06
2017-12-03T13:22:29.816Z,96601.38
2017-12-03T13:24:57.411Z,96599.66
2017-12-03T13:27:24.976Z,96607.69
2017-12-03T13:29:52.619Z,96610.63
2017-12-03T13:32:20.194Z,96605.27
2017-12-03T13:34:47.837Z,96600.00
2017-12-03T13:37:15.449Z,96597.02
2017-12-03T13:39:43.039Z,96602.52
2017-12-03T13:42:10.584Z,96601.06
2017-12-03T13:44:38.198Z,96604.84
2017-12-03T13:47:05.974Z,96602.48
2017-12-03T13:49:33.531Z,96604.64
2017-12-03T13:52:01.130Z,96605.96
2017-12-03T13:54:28.745Z,96607.11
2017-12-03T13:56:56.635Z,96602.02
2017-12-03T14:01:59.448Z,96607.54
2017-12-03T14:04:27.094Z,96598.91
2017-12-03T14:06:54.645Z,96614.88
2017-12-03T14:09:22.229Z,96611.09
2017-12-03T14:11:49.761Z,96615.45
2017-12-03T14:14:17.425Z,96612.66
2017-12-03T14:16:45.396Z,96616.53
2017-12-03T14:19:13.139Z,96614.68
2017-12-03T14:21:40.705Z,96613.86
2017-12-03T14:24:08.332Z,96621.52
2017-12-03T14:29:02.866Z,96626.11
2017-12-03T14:31:30.442Z,96625.16
2017-12-03T14:33:58.035Z,96619.23
2017-12-03T14:36:25.619Z,96620.78
2017-12-03T14:38:53.203Z,96622.72
2017-12-03T14:41:20.752Z,96619.52
2017-12-03T14:43:48.334Z,96620.91
2017-12-03T14:46:16.018Z,96623.97
2017-12-03T14:48:43.572Z,96623.05
2017-12-03T14:51:11.399Z,96630.97
2017-12-03T14:53:38.990Z,96620.58
2017-12-03T14:56:06.537Z,96625.58
2017-12-03T14:58:34.081Z,96628.88
2017-12-03T15:01:01.730Z,96620.53
2017-12-03T15:03:29.741Z,96624.36
2017-12-03T15:05:57.336Z,96624.07
2017-12-03T15:08:24.913Z,96619.22
2017-12-03T15:10:52.503Z,96619.22
2017-12-03T15:13:20.076Z,96620.72
2017-12-03T15:15:49.082Z,96623.23
2017-12-03T15:18:16.663Z,96620.80
2017-12-03T15:20:44.230Z,96629.61
2017-12-03T15:23:12.074Z,96628.95
2017-12-03T15:25:39.654Z,96625.17
2017-12-03T15:28:07.229Z,96627.27
2017-12-03T15:30:34.827Z,96626.52
2017-12-03T15:33:02.377Z,96626.56
2017-12-03T15:35:29.965Z,96626.66
2017-12-03T15:37:58.499Z,96628.33
2017-12-03T15:40:26.141Z,96630.25
2017-12-03T15:42:53.784Z,96623.72
2017-12-03T15:45:21.389Z,96630.05
2017-12-03T15:47:48.996Z,96634.32
2017-12-03T15:50:16.575Z,96640.08
2017-12-03T15:52:44.265Z,96636.25
2017-12-03T15:55:11.983Z,96630.75
2017-12-03T15:57:39.562Z,96638.44
2017-12-03T16:00:07.201Z,96633.41
2017-12-03T16:02:34.824Z,96626.66
2017-12-03T16:05:02.459Z,96626.28
2017-12-03T16:07:30.091Z,96634.66
2017-12-03T16:09:58.263Z,96632.98
2017-12-03T16:12:25.837Z,96630.97
2017-12-03T16:14:53.503Z,96636.71
2017-12-03T16:17:21.108Z,96633.36
2017-12-03T16:19:48.908Z,96622.55
2017-12-03T16:22:17.251Z,96628.03
2017-12-03T16:24:44.862Z,96632.19
2017-12-03T16:27:12.502Z,96633.06
2017-12-03T16:29:40.132Z,96633.53
2017-12-03T16:32:07.753Z,96637.02
2017-12-03T16:34:35.347Z,96630.44
2017-12-03T16:37:03.015Z,96638.77
2017-12-03T16:39:30.617Z,96635.46
2017-12-03T16:41:58.220Z,96642.47
2017-12-03T16:44:25.804Z,96640.86
2017-12-03T16:46:53.456Z,96644.67
2017-12-03T16:49:21.031Z,96658.01
2017-12-03T16:51:48.646Z,96656.80
2017-12-03T16:54:16.243Z,96659.81
2017-12-03T16:56:43.867Z,96658.89
2017-12-03T16:59:11.452Z,96657.72
2017-12-03T17:01:39.067Z,96660.31
2017-12-03T17:04:06.688Z,96655.70
2017-12-03T17:06:34.312Z,96662.78
2017-12-03T17:09:01.943Z,96657.30
2017-12-03T17:11:29.598Z,96666.55
2017-12-03T17:13:57.278Z,96664.54
2017-12-03T17:16:24.960Z,96654.91
2017-12-03T17:18:52.686Z,96665.05
2017-12-03T17:21:20.261Z,96667.94
2017-12-03T17:23:47.844Z,96667.14
2017-12-03T17:26:15.554Z,96663.28
2017-12-03T17:28:43.174Z,96664.28
2017-12-03T17:31:10.793Z,96664.36
2017-12-03T17:33:38.493Z,96665.54
2017-12-03T17:36:07.638Z,96653.98
2017-12-03T17:38:35.310Z,96657.63
2017-12-03T17:41:02.993Z,96668.94
2017-12-03T17:43:30.579Z,96664.78
2017-12-03T17:45:58.175Z,96657.58
2017-12-03T17:48:25.815Z,96660.52
2017-12-03T17:50:53.468Z,96661.27
2017-12-03T17:53:21.166Z,96662.19
2017-12-03T17:55:48.741Z,96660.94
2017-12-03T17:58:16.370Z,96664.70
2017-12-03T18:00:44.133Z,96660.09
2017-12-03T18:03:11.756Z,96657.63
2017-12-03T18:05:39.344Z,96662.69
2017-12-03T18:08:06.913Z,96656.36
2017-12-03T18:10:34.567Z,96651.72
2017-12-03T18:13:02.146Z,96658.88
2017-12-03T18:15:29.802Z,96654.77
2017-12-03T18:17:57.479Z,96648.78
2017-12-03T18:20:25.127Z,96650.12
2017-12-03T18:22:52.695Z,96649.66
2017-12-03T18:25:20.292Z,96647.27
2017-12-03T18:27:47.952Z,96663.23
2017-12-03T18:30:15.619Z,96652.22
2017-12-03T18:32:43.279Z,96653.17
2017-12-03T18:35:10.980Z,96660.64
2017-12-03T18:37:38.696Z,96647.73
2017-12-03T18:40:06.358Z,96650.32
2017-12-03T18:42:34.015Z,96652.91
2017-12-03T18:45:01.609Z,96659.61
2017-12-03T18:47:29.210Z,96650.70
2017-12-03T18:49:56.858Z,96660.15
2017-12-03T18:52:24.684Z,96654.74
2017-12-03T18:54:52.271Z,96656.01
2017-12-03T18:57:19.869Z,96664.16
2017-12-03T18:59:47.576Z,96653.80
2017-12-03T19:02:15.146Z,96655.86
2017-12-03T19:04:42.786Z,96656.66
2017-12-03T19:07:10.561Z,96653.42
2017-12-03T19:09:38.183Z,96656.58
2017-12-03T19:12:05.768Z,96653.72
2017-12-03T19:14:33.434Z,96657.38
2017-12-03T19:17:01.051Z,96661.11
2017-12-03T19:19:28.637Z,96659.81
2017-12-03T19:21:56.244Z,96669.30
2017-12-03T19:24:23.815Z,96658.67
2017-12-03T19:26:51.397Z,96658.67
2017-12-03T19:29:18.999Z,96660.38
2017-12-03T19:31:46.573Z,96659.28
2017-12-03T19:34:14.142Z,96660.84
2017-12-03T19:39:31.866Z,96659.81
2017-12-03T19:41:59.494Z,96660.08
2017-12-03T19:44:27.087Z,96661.29
2017-12-03T19:46:54.667Z,96651.95
2017-12-03T19:49:26.191Z,96656.10
2017-12-03T19:51:53.780Z,96653.98
2017-12-03T19:54:21.353Z,96655.16
2017-12-03T19:56:48.925Z,96652.67
2017-12-03T19:59:16.583Z,96651.84
2017-12-03T20:04:34.334Z,96654.73
2017-12-03T20:07:01.927Z,96653.98
2017-12-03T20:09:29.501Z,96649.36
2017-12-03T20:11:57.116Z,96649.32
2017-12-03T20:14:24.700Z,96656.83
2017-12-03T20:16:52.491Z,96651.04
2017-12-03T20:19:20.153Z,96644.63
2017-12-03T20:21:47.732Z,96645.73
2017-12-03T20:24:15.340Z,96654.98
2017-12-03T20:26:42.930Z,96648.63
2017-12-03T20:32:00.713Z,96648.50
2017-12-03T20:34:28.280Z,96653.06
2017-12-03T20:36:55.835Z,96661.45
2017-12-03T20:39:23.453Z,96658.01
2017-12-03T20:41:51.055Z,96653.41
2017-12-03T20:44:18.682Z,96665.17
2017-12-03T20:46:46.337Z,96664.25
2017-12-03T20:49:13.956Z,96667.61
2017-12-03T20:51:41.549Z,96666.77
2017-12-03T20:54:09.145Z,96666.31
2017-12-03T20:56:36.754Z,96658.30
2017-12-03T20:59:04.351Z,96672.94
2017-12-03T21:01:31.977Z,96668.27
2017-12-03T21:03:59.579Z,96672.05
2017-12-03T21:06:27.169Z,96675.87
2017-12-03T21:08:54.826Z,96664.22
2017-12-03T21:11:22.398Z,96675.11
2017-12-03T21:13:49.964Z,96667.91
2017-12-03T21:16:17.585Z,96665.42
2017-12-03T21:18:45.178Z,96667.06
2017-12-03T21:21:12.763Z,96674.98
2017-12-03T21:23:40.382Z,96677.00
2017-12-03T21:26:07.971Z,96675.07
2017-12-03T21:28:35.555Z,96676.29
2017-12-03T21:31:03.206Z,96675.95
2017-12-03T21:33:30.832Z,96670.00
2017-12-03T21:35:58.480Z,96671.30
2017-12-03T21:38:26.055Z,96675.53
2017-12-03T21:40:53.678Z,96663.70
2017-12-03T21:43:21.257Z,96671.63
2017-12-03T21:45:48.879Z,96663.20
2017-12-03T21:48:16.494Z,96669.16
2017-12-03T21:50:44.071Z,96669.02
2017-12-03T21:53:11.692Z,96671.55
2017-12-03T21:55:39.290Z,96669.83
2017-12-03T21:58:06.878Z,96670.66
2017-12-03T22:00:34.512Z,96672.77
2017-12-03T22:03:02.149Z,96668.53
2017-12-03T22:05:29.829Z,96666.89
2017-12-03T22:07:58.237Z,96673.59
2017-12-03T22:10:25.961Z,96679.05
2017-12-03T22:12:53.846Z,96674.81
2017-12-03T22:15:21.440Z,96669.69
2017-12-03T22:17:50.089Z,96655.89
2017-12-03T22:20:17.687Z,96664.63
2017-12-03T22:22:45.280Z,96674.69
2017-12-03T22:25:13.089Z,96669.98
2017-12-03T22:27:40.842Z,96679.33
2017-12-03T22:30:08.500Z,96666.25
2017-12-03T22:32:36.141Z,96674.81
2017-12-03T22:35:03.724Z,96671.88
2017-12-03T22:37:31.330Z,96668.09
2017-12-03T22:39:58.942Z,96671.91
2017-12-03T22:42:26.573Z,96668.19
2017-12-03T22:44:54.270Z,96662.77
2017-12-03T22:47:21.939Z,96672.80
2017-12-03T22:49:49.686Z,96657.37
2017-12-03T22:52:17.443Z,96664.46
2017-12-03T22:54:45.038Z,96667.44
2017-12-03T22:57:13.068Z,96658.21
2017-12-03T22:59:40.707Z,96651.04
2017-12-03T23:02:08.313Z,96648.94
2017-12-03T23:04:35.884Z,96653.59
2017-12-03T23:07:05.355Z,96662.77
2017-12-03T23:09:32.968Z,96650.99
2017-12-03T23:12:00.553Z,96658.03
2017-12-03T23:14:28.159Z,96658.00
2017-12-03T23:16:55.791Z,96647.18
2017-12-03T23:19:23.333Z,96646.84
2017-12-03T23:21:50.922Z,96661.11
2017-12-03T23:24:18.530Z,96651.41
2017-12-03T23:26:47.784Z,96652.30
2017-12-03T23:29:16.848Z,96640.47
2017-12-03T23:31:44.792Z,96657.83
2017-12-03T23:34:12.481Z,96643.12
2017-12-03T23:36:40.073Z,96650.24
2017-12-03T23:39:07.744Z,96646.89
2017-12-03T23:41:35.339Z,96647.27
2017-12-03T23:44:05.281Z,96636.78
2017-12-03T23:46:32.895Z,96639.30
2017-12-03T23:49:00.491Z,96632.59
2017-12-03T23:51:28.053Z,96645.21
2017-12-03T23:53:55.633Z,96642.23
2017-12-03T23:56:23.256Z,96645.16
2017-12-03T23:58:50.847Z,96616.61
